Time;durP1;ratioP1;P1;durP2;ratioP2;P2;SDS_P1;SDS_P2;PMS_P1;PMS_P2;Temp;Humidity;BMP_temperature;BMP_pressure;BME280_temperature;BME280_humidity;BME280_pressure;Samples;Min_cycle;Max_cycle;Signal;HPM_P1;HPM_P2
2022/01/14 00:01:38;;;;;;;57.63;24.77;;;-1.80;99.90;;;;;;5087364;28;20032;-72
2022/01/14 00:04:04;;;;;;;52.80;24.60;;;-1.80;99.90;;;;;;5092814;28;20058;-71
2022/01/14 00:06:30;;;;;;;54.67;25.15;;;-1.80;99.90;;;;;;5093189;28;20024;-71
2022/01/14 00:09:04;;;;;;;56.38;26.75;;;-1.80;99.90;;;;;;5088445;28;20024;-72
2022/01/14 00:11:31;;;;;;;51.70;24.92;;;-1.70;99.90;;;;;;5092872;28;20024;-71
2022/01/14 00:14:10;;;;;;;50.75;25.67;;;-1.70;99.90;;;;;;5092113;28;20115;-71
2022/01/14 00:16:36;;;;;;;54.63;24.25;;;-1.70;99.90;;;;;;5081358;28;20078;-72
2022/01/14 00:19:02;;;;;;;53.90;24.90;;;-1.70;99.90;;;;;;5072222;28;20078;-71
2022/01/14 00:21:29;;;;;;;50.72;25.65;;;-1.80;99.90;;;;;;5072411;28;20542;-71
2022/01/14 00:24:06;;;;;;;50.00;24.48;;;-1.70;99.90;;;;;;5083222;28;20047;-71
2022/01/14 00:32:09;;;;;;;51.65;26.40;;;-1.80;99.90;;;;;;5090283;28;20078;-71
2022/01/14 00:34:35;;;;;;;53.92;26.83;;;-1.80;99.90;;;;;;5092790;28;20032;-72
2022/01/14 00:37:01;;;;;;;48.97;25.45;;;-1.90;99.90;;;;;;5092028;28;20434;-71
2022/01/14 00:39:27;;;;;;;52.95;25.55;;;-1.90;99.90;;;;;;5092604;28;20024;-72
2022/01/14 00:41:53;;;;;;;55.92;25.90;;;-2.00;99.90;;;;;;5074207;28;20035;-71
2022/01/14 00:44:20;;;;;;;55.15;27.08;;;-2.00;99.90;;;;;;5076979;28;20030;-71
2022/01/14 00:46:48;;;;;;;53.53;25.75;;;-2.00;99.90;;;;;;5091682;28;20156;-71
2022/01/14 00:49:15;;;;;;;64.43;30.10;;;-2.00;99.90;;;;;;5092701;28;20465;-71
2022/01/14 00:51:41;;;;;;;64.57;30.42;;;-2.00;99.90;;;;;;5074937;28;20105;-72
2022/01/14 00:54:08;;;;;;;57.95;28.60;;;-1.90;99.90;;;;;;5077447;28;20132;-72
2022/01/14 00:59:14;;;;;;;57.20;28.90;;;-1.60;99.90;;;;;;5072501;28;20029;-72
2022/01/14 01:01:56;;;;;;;60.95;28.63;;;-1.50;99.90;;;;;;5071786;28;20040;-72
2022/01/14 01:04:31;;;;;;;53.90;26.20;;;-1.40;99.90;;;;;;5072280;28;20020;-71
2022/01/14 01:06:58;;;;;;;56.50;26.70;;;-1.40;99.90;;;;;;5053690;28;20032;-72
2022/01/14 01:09:25;;;;;;;56.45;29.02;;;-1.40;99.90;;;;;;5072201;28;20055;-72
2022/01/14 01:12:09;;;;;;;49.65;25.92;;;-1.40;99.90;;;;;;5089479;28;20545;-72
2022/01/14 01:14:47;;;;;;;52.30;25.67;;;-1.40;99.90;;;;;;5079311;28;20027;-71
2022/01/14 01:17:13;;;;;;;49.63;25.08;;;-1.50;99.90;;;;;;5073877;28;20031;-71
2022/01/14 01:19:40;;;;;;;43.60;23.80;;;-1.50;99.90;;;;;;5088905;28;20032;-72
2022/01/14 01:22:06;;;;;;;52.72;25.67;;;-1.60;99.90;;;;;;5071730;28;20047;-71
2022/01/14 01:24:32;;;;;;;54.58;26.20;;;-1.70;99.90;;;;;;5066498;28;20024;-71
2022/01/14 01:27:03;;;;;;;50.78;27.45;;;-1.70;99.90;;;;;;5090715;28;20096;-71
2022/01/14 01:29:47;;;;;;;51.83;25.80;;;-1.80;99.90;;;;;;5083892;28;20024;-71
2022/01/14 01:32:13;;;;;;;55.47;26.55;;;-1.90;99.90;;;;;;5071832;28;20056;-71
2022/01/14 01:34:39;;;;;;;63.13;28.45;;;-1.90;99.90;;;;;;5071342;28;20036;-72
2022/01/14 01:37:05;;;;;;;56.30;26.70;;;-1.90;99.90;;;;;;5083773;28;20024;-71
2022/01/14 01:39:34;;;;;;;61.67;29.17;;;-2.00;99.90;;;;;;5091706;28;20377;-71
2022/01/14 01:42:09;;;;;;;58.33;28.13;;;-2.00;99.90;;;;;;5090860;28;20175;-74
2022/01/14 01:44:36;;;;;;;58.22;27.98;;;-1.90;99.90;;;;;;5091789;28;20020;-72
2022/01/14 01:47:03;;;;;;;57.22;27.88;;;-1.90;99.90;;;;;;5071473;28;20119;-72
2022/01/14 01:49:32;;;;;;;57.13;28.85;;;-1.90;99.90;;;;;;5076277;28;20056;-71
2022/01/14 01:51:58;;;;;;;56.65;27.55;;;-1.90;99.90;;;;;;5070903;28;20032;-71
2022/01/14 01:54:26;;;;;;;61.78;29.77;;;-1.90;99.90;;;;;;5071334;28;20051;-71
2022/01/14 01:56:52;;;;;;;55.10;27.75;;;-1.90;99.90;;;;;;5070236;28;20074;-72
2022/01/14 01:59:19;;;;;;;53.10;24.95;;;-1.90;99.90;;;;;;5078716;28;20036;-71
2022/01/14 02:01:45;;;;;;;51.63;26.67;;;-1.90;99.90;;;;;;5090330;28;20524;-72
2022/01/14 02:04:12;;;;;;;53.47;26.70;;;-1.90;99.90;;;;;;5091418;28;20107;-71
2022/01/14 02:06:40;;;;;;;59.20;28.45;;;-2.00;99.90;;;;;;5091448;28;20457;-72
2022/01/14 02:09:07;;;;;;;60.90;27.30;;;-2.00;99.90;;;;;;5081175;28;20081;-71
2022/01/14 02:11:33;;;;;;;53.72;27.00;;;-2.00;99.90;;;;;;5071212;28;20024;-71
2022/01/14 02:14:04;;;;;;;59.80;28.35;;;-2.00;99.90;;;;;;5080800;28;20044;-71
2022/01/14 02:24:54;;;;;;;55.38;26.38;;;-1.90;99.90;;;;;;5094703;28;20552;-71
2022/01/14 02:27:19;;;;;;;56.72;27.05;;;-1.90;99.90;;;;;;5082599;28;20052;-71
2022/01/14 02:29:44;;;;;;;48.22;25.55;;;-2.00;99.90;;;;;;5087563;28;20059;-71
2022/01/14 02:32:10;;;;;;;55.47;27.70;;;-2.10;99.90;;;;;;5094623;28;20028;-71
2022/01/14 02:34:37;;;;;;;50.95;25.92;;;-2.10;99.90;;;;;;5094806;28;20025;-71
2022/01/14 02:37:04;;;;;;;53.90;26.98;;;-2.20;99.90;;;;;;5082913;28;20560;-71
2022/01/14 02:39:30;;;;;;;55.00;27.02;;;-2.30;99.90;;;;;;5074730;28;20033;-72
2022/01/14 02:41:55;;;;;;;49.45;26.30;;;-2.30;99.90;;;;;;5072219;28;20058;-72
2022/01/14 02:44:27;;;;;;;61.17;29.50;;;-2.30;99.90;;;;;;5075221;28;20021;-71
2022/01/14 02:46:57;;;;;;;54.90;28.10;;;-2.40;99.90;;;;;;5084152;28;20028;-72
2022/01/14 02:49:28;;;;;;;53.38;27.40;;;-2.30;99.90;;;;;;5094176;28;20044;-72
2022/01/14 02:51:55;;;;;;;56.80;28.20;;;-2.30;99.90;;;;;;5093890;28;20155;-72
2022/01/14 02:54:23;;;;;;;62.67;28.77;;;-2.30;99.90;;;;;;5094585;28;20028;-72
2022/01/14 02:56:53;;;;;;;59.75;28.98;;;-2.30;99.90;;;;;;5087598;28;20499;-72
2022/01/14 02:59:20;;;;;;;59.20;29.63;;;-2.30;99.90;;;;;;5074284;28;20035;-71
2022/01/14 03:01:48;;;;;;;53.50;26.92;;;-2.30;99.90;;;;;;5081442;28;20036;-72
2022/01/14 03:04:17;;;;;;;59.60;29.73;;;-2.20;99.90;;;;;;5094096;28;20457;-71
2022/01/14 03:06:43;;;;;;;58.80;29.30;;;-2.30;99.90;;;;;;5094213;28;20020;-72
2022/01/14 03:09:09;;;;;;;58.25;29.40;;;-2.30;99.90;;;;;;5094298;28;20374;-71
2022/01/14 03:11:39;;;;;;;66.90;32.08;;;-2.30;99.90;;;;;;5092517;28;20035;-71
2022/01/14 03:14:06;;;;;;;64.78;31.88;;;-2.30;99.90;;;;;;5093311;28;20089;-72
2022/01/14 03:16:38;;;;;;;58.78;31.27;;;-2.30;99.90;;;;;;5088353;28;20103;-72
2022/01/14 03:19:08;;;;;;;54.97;28.63;;;-2.20;99.90;;;;;;5073314;28;20048;-71
2022/01/14 03:21:40;;;;;;;61.20;28.90;;;-2.10;99.90;;;;;;5073714;28;20037;-71
2022/01/14 03:26:52;;;;;;;52.17;27.23;;;-2.10;99.90;;;;;;5051553;28;20156;-71
2022/01/14 03:29:18;;;;;;;53.05;26.67;;;-2.20;99.90;;;;;;5093835;28;20064;-71
2022/01/14 03:31:45;;;;;;;51.33;26.50;;;-2.20;99.90;;;;;;5085423;28;20028;-72
2022/01/14 03:34:12;;;;;;;50.22;24.83;;;-2.30;99.90;;;;;;5073192;28;20060;-71
2022/01/14 03:36:38;;;;;;;48.58;25.50;;;-2.30;99.90;;;;;;5078152;28;20165;-71
2022/01/14 03:39:05;;;;;;;51.60;25.60;;;-2.40;99.90;;;;;;5092672;28;20645;-71
2022/01/14 03:41:30;;;;;;;57.42;28.77;;;-2.50;99.90;;;;;;5093126;28;20028;-71
2022/01/14 03:43:56;;;;;;;58.33;27.63;;;-2.60;99.90;;;;;;5078787;28;20040;-71
2022/01/14 03:46:22;;;;;;;54.15;28.63;;;-4.20;99.90;;;;;;5077270;28;20516;-71
2022/01/14 03:48:47;;;;;;;60.88;32.10;;;-2.50;99.90;;;;;;5074246;28;20051;-71
2022/01/14 03:51:13;;;;;;;64.57;31.20;;;-2.60;99.90;;;;;;5092607;28;20575;-71
2022/01/14 03:53:39;;;;;;;60.10;29.90;;;-2.60;99.90;;;;;;5075119;28;20032;-71
2022/01/14 03:56:06;;;;;;;54.30;28.10;;;-2.60;99.90;;;;;;5092561;28;20036;-71
2022/01/14 03:58:31;;;;;;;58.97;29.77;;;-2.60;99.90;;;;;;5093282;28;20476;-71
2022/01/14 04:00:57;;;;;;;58.42;30.30;;;-2.60;99.90;;;;;;5091168;28;20117;-72
2022/01/14 04:03:23;;;;;;;60.13;30.08;;;-2.60;99.90;;;;;;5072970;28;20121;-71
2022/01/14 04:05:49;;;;;;;59.55;32.28;;;-2.50;99.90;;;;;;5072279;28;20133;-71
2022/01/14 04:08:15;;;;;;;59.50;29.02;;;-2.50;99.90;;;;;;5087010;28;20029;-71
2022/01/14 04:10:41;;;;;;;62.15;30.42;;;-2.50;99.90;;;;;;5092873;28;20374;-71
2022/01/14 04:13:17;;;;;;;59.80;28.88;;;-2.60;99.90;;;;;;5091944;28;20449;-72
2022/01/14 04:15:45;;;;;;;63.58;28.50;;;-2.50;99.90;;;;;;5092715;28;20036;-71
2022/01/14 04:18:17;;;;;;;56.60;29.42;;;-2.60;99.90;;;;;;5073633;28;20446;-71
2022/01/14 04:20:47;;;;;;;56.67;28.73;;;-2.60;99.90;;;;;;5072335;28;20037;-72
2022/01/14 04:23:13;;;;;;;58.72;28.70;;;-2.60;99.90;;;;;;5075015;28;20035;-72
2022/01/14 04:25:40;;;;;;;57.55;28.58;;;-2.60;99.90;;;;;;5092175;28;20568;-71
2022/01/14 04:28:07;;;;;;;64.50;30.95;;;-2.60;99.90;;;;;;5092062;28;20594;-71
2022/01/14 04:30:33;;;;;;;57.17;28.70;;;-2.50;99.90;;;;;;5087199;28;20024;-71
2022/01/14 04:32:59;;;;;;;53.97;26.70;;;-2.40;99.90;;;;;;5074490;28;20036;-71
2022/01/14 04:35:26;;;;;;;60.83;28.15;;;-2.30;99.90;;;;;;5080452;28;20039;-71
2022/01/14 04:37:52;;;;;;;60.08;26.85;;;-2.30;99.90;;;;;;5091791;28;20036;-71
2022/01/14 04:40:18;;;;;;;50.00;27.10;;;-2.30;99.90;;;;;;5091998;28;20024;-71
2022/01/14 04:42:44;;;;;;;51.03;26.63;;;-2.30;99.90;;;;;;5092379;28;20072;-72
2022/01/14 04:45:26;;;;;;;45.00;24.67;;;-2.40;99.90;;;;;;5091731;28;20031;-71
2022/01/14 04:47:52;;;;;;;52.55;24.90;;;-2.40;99.90;;;;;;5075933;28;20036;-72
2022/01/14 04:50:20;;;;;;;52.97;27.63;;;-2.50;99.90;;;;;;5072239;28;20033;-72
2022/01/14 04:52:47;;;;;;;49.67;26.13;;;-2.60;99.90;;;;;;5071719;28;20036;-72
2022/01/14 04:55:17;;;;;;;52.08;26.27;;;-2.60;99.90;;;;;;5071990;28;20041;-72
2022/01/14 04:57:43;;;;;;;50.53;27.58;;;-2.70;99.90;;;;;;5072315;28;20025;-71
2022/01/14 05:00:12;;;;;;;58.17;29.23;;;-2.70;99.90;;;;;;5071222;28;20041;-71
2022/01/14 05:02:39;;;;;;;57.30;27.85;;;-2.80;99.90;;;;;;5071360;28;20028;-71
2022/01/14 05:05:09;;;;;;;58.35;28.40;;;-2.80;99.90;;;;;;5071067;28;20033;-72
2022/01/14 05:07:36;;;;;;;59.70;28.45;;;-2.80;99.90;;;;;;5083170;28;20465;-71
2022/01/14 05:12:34;;;;;;;64.13;29.63;;;-2.80;99.90;;;;;;5082581;28;20040;-71
2022/01/14 05:14:59;;;;;;;56.17;29.20;;;-2.80;99.90;;;;;;5070801;28;20082;-71
2022/01/14 05:17:25;;;;;;;53.00;28.35;;;-2.80;99.90;;;;;;5071561;28;20020;-71
2022/01/14 05:19:51;;;;;;;55.50;28.52;;;-2.80;99.90;;;;;;5071413;28;20039;-71
2022/01/14 05:22:17;;;;;;;57.53;28.25;;;-2.80;99.90;;;;;;5078379;28;20032;-71
2022/01/14 05:24:44;;;;;;;53.03;28.27;;;-2.90;99.90;;;;;;5082397;28;20028;-71
2022/01/14 05:27:10;;;;;;;55.88;27.05;;;-2.90;99.90;;;;;;5089483;28;20024;-72
2022/01/14 05:29:36;;;;;;;52.25;26.60;;;-2.90;99.90;;;;;;5087360;28;20032;-72
2022/01/14 05:32:03;;;;;;;49.00;26.33;;;-2.90;99.90;;;;;;5088873;28;20039;-71
2022/01/14 05:34:33;;;;;;;58.30;29.63;;;-2.90;99.90;;;;;;5089731;28;20097;-71
2022/01/14 05:37:00;;;;;;;53.88;27.48;;;-2.90;99.90;;;;;;5089618;28;20040;-71
2022/01/14 05:39:26;;;;;;;58.70;28.48;;;-2.90;99.90;;;;;;5090433;28;20024;-71
2022/01/14 05:41:53;;;;;;;55.55;27.75;;;-2.90;99.90;;;;;;5088852;28;20449;-70
2022/01/14 05:44:19;;;;;;;57.45;29.23;;;-2.90;99.90;;;;;;5090478;28;20157;-71
2022/01/14 05:46:44;;;;;;;57.95;29.00;;;-2.90;99.90;;;;;;5089858;28;20086;-72
2022/01/14 05:49:11;;;;;;;51.75;27.73;;;-2.90;99.90;;;;;;5074439;28;20048;-72
2022/01/14 05:51:36;;;;;;;55.33;28.35;;;-2.90;99.90;;;;;;5093639;28;20032;-71
2022/01/14 05:54:02;;;;;;;58.35;29.02;;;-2.80;99.90;;;;;;5090234;28;20620;-72
2022/01/14 05:56:28;;;;;;;54.65;26.70;;;-2.80;99.90;;;;;;5094416;28;20021;-71
2022/01/14 05:58:53;;;;;;;56.92;28.92;;;-2.90;99.90;;;;;;5092763;28;20038;-71
2022/01/14 06:01:19;;;;;;;50.05;28.00;;;-2.90;99.90;;;;;;5094736;28;20020;-71
2022/01/14 06:03:44;;;;;;;62.10;27.58;;;-2.90;99.90;;;;;;5094091;28;20111;-71
2022/01/14 06:06:10;;;;;;;52.45;27.13;;;-2.80;99.90;;;;;;5095221;28;20024;-71
2022/01/14 06:08:36;;;;;;;51.97;26.58;;;-2.70;99.90;;;;;;5092066;28;20032;-71
2022/01/14 06:11:01;;;;;;;48.50;24.75;;;-2.70;99.90;;;;;;5094473;28;20023;-71
2022/01/14 06:13:27;;;;;;;55.17;25.45;;;-2.60;99.90;;;;;;5094478;28;20071;-71
2022/01/14 06:15:52;;;;;;;46.70;23.88;;;-2.70;99.90;;;;;;5093663;28;20032;-71
2022/01/14 06:18:18;;;;;;;50.22;24.80;;;-2.60;99.90;;;;;;5091658;28;22303;-71
2022/01/14 06:20:44;;;;;;;51.85;25.75;;;-2.60;99.90;;;;;;5091142;28;20424;-71
2022/01/14 06:23:09;;;;;;;46.70;25.38;;;-2.70;99.90;;;;;;5082200;28;20028;-72
2022/01/14 06:25:36;;;;;;;54.35;27.08;;;-2.70;99.90;;;;;;5076995;28;20035;-72
2022/01/14 06:28:01;;;;;;;55.97;25.33;;;-2.70;99.90;;;;;;5073166;28;20029;-75
2022/01/14 06:30:27;;;;;;;58.58;25.75;;;-2.70;99.90;;;;;;5064988;28;20028;-77
2022/01/14 06:32:54;;;;;;;43.97;24.60;;;-2.70;99.90;;;;;;5083523;28;20047;-75
2022/01/14 06:35:20;;;;;;;49.67;25.17;;;-2.70;99.90;;;;;;5074468;28;20067;-76
2022/01/14 06:37:46;;;;;;;49.50;25.85;;;-2.70;99.90;;;;;;5074857;28;20077;-75
2022/01/14 06:40:12;;;;;;;55.35;26.60;;;-2.70;99.90;;;;;;5073560;28;20791;-73
2022/01/14 06:42:38;;;;;;;50.03;23.90;;;-2.80;99.90;;;;;;5082255;28;20035;-75
2022/01/14 06:45:05;;;;;;;48.72;25.05;;;-2.70;99.90;;;;;;5094021;28;20028;-74
2022/01/14 06:47:30;;;;;;;47.63;25.38;;;-2.70;99.90;;;;;;5076195;28;20024;-71
2022/01/14 06:49:56;;;;;;;43.22;22.83;;;-2.80;99.90;;;;;;5093321;28;20551;-72
2022/01/14 06:52:23;;;;;;;49.45;24.20;;;-2.70;99.90;;;;;;5089098;28;20032;-77
2022/01/14 06:54:48;;;;;;;41.05;22.48;;;-2.70;99.90;;;;;;5074439;28;20028;-74
2022/01/14 06:57:15;;;;;;;48.05;24.73;;;-2.70;99.90;;;;;;5056099;28;20116;-74
2022/01/14 06:59:41;;;;;;;47.42;23.15;;;-2.80;99.90;;;;;;5079526;28;20054;-78
2022/01/14 07:02:06;;;;;;;43.75;24.05;;;-2.80;99.90;;;;;;5085898;28;20043;-79
2022/01/14 07:04:33;;;;;;;48.55;25.45;;;-2.80;99.90;;;;;;5091329;28;20035;-73
2022/01/14 07:06:59;;;;;;;47.25;23.52;;;-2.80;99.90;;;;;;5072955;28;20122;-73
2022/01/14 07:09:25;;;;;;;43.50;23.63;;;-2.80;99.90;;;;;;5070631;28;20028;-75
2022/01/14 07:11:57;;;;;;;50.03;24.75;;;-2.80;99.90;;;;;;5084246;28;20034;-73
2022/01/14 07:14:23;;;;;;;47.50;24.17;;;-2.80;99.90;;;;;;5078335;28;20087;-73
2022/01/14 07:16:48;;;;;;;47.22;23.58;;;-2.70;99.90;;;;;;5056129;28;20028;-73
2022/01/14 07:19:16;;;;;;;45.50;22.80;;;-2.70;99.90;;;;;;5072951;28;20036;-73
2022/01/14 07:21:42;;;;;;;41.63;21.75;;;-2.60;99.90;;;;;;5081339;28;20487;-72
2022/01/14 07:24:09;;;;;;;41.67;22.00;;;-2.60;99.90;;;;;;5092978;28;20099;-69
2022/01/14 07:26:35;;;;;;;43.50;23.48;;;-2.70;99.90;;;;;;5093432;28;20426;-71
2022/01/14 07:29:01;;;;;;;45.78;23.83;;;-2.80;99.90;;;;;;5092919;28;20107;-72
2022/01/14 07:31:27;;;;;;;48.47;25.17;;;-2.70;99.90;;;;;;5087387;28;20056;-72
2022/01/14 07:33:52;;;;;;;49.53;24.17;;;-2.70;99.90;;;;;;5072719;28;20071;-73
2022/01/14 07:36:18;;;;;;;53.15;25.38;;;-2.70;99.90;;;;;;5072642;28;20039;-72
2022/01/14 07:38:43;;;;;;;45.88;24.98;;;-2.70;99.90;;;;;;5073324;28;20025;-72
2022/01/14 07:41:09;;;;;;;45.65;22.95;;;-2.70;99.90;;;;;;5076903;28;20039;-72
2022/01/14 07:43:35;;;;;;;37.15;20.90;;;-2.60;99.90;;;;;;5073085;28;20055;-73
2022/01/14 07:46:02;;;;;;;38.75;20.45;;;-2.50;99.90;;;;;;5072624;28;20025;-72
2022/01/14 07:48:28;;;;;;;38.95;19.27;;;-2.40;99.90;;;;;;5072870;28;20072;-72
2022/01/14 07:50:53;;;;;;;36.05;19.40;;;-2.30;99.90;;;;;;5073520;28;20530;-73
2022/01/14 07:53:19;;;;;;;34.97;19.52;;;-2.30;99.90;;;;;;5092859;28;20058;-70
2022/01/14 07:55:45;;;;;;;35.30;18.42;;;-2.20;99.90;;;;;;5079311;28;20101;-72
2022/01/14 07:58:11;;;;;;;39.75;20.35;;;-2.20;99.90;;;;;;5072139;28;20021;-72
2022/01/14 08:00:37;;;;;;;40.50;20.15;;;-2.20;99.90;;;;;;5079480;28;20173;-72
2022/01/14 08:03:03;;;;;;;35.60;19.48;;;-2.10;99.90;;;;;;5092097;28;20028;-72
2022/01/14 08:05:29;;;;;;;35.33;17.95;;;-2.00;99.90;;;;;;5073186;28;20055;-72
2022/01/14 08:07:58;;;;;;;36.30;19.08;;;-2.00;99.90;;;;;;5081817;28;20036;-74
2022/01/14 08:10:24;;;;;;;33.40;18.38;;;-1.90;99.90;;;;;;5089725;28;20156;-72
2022/01/14 08:12:50;;;;;;;34.72;18.63;;;-1.80;99.90;;;;;;5077975;28;20123;-71
2022/01/14 08:15:16;;;;;;;35.65;18.55;;;-1.80;99.90;;;;;;5072124;28;20032;-72
2022/01/14 08:17:42;;;;;;;35.55;18.15;;;-1.80;99.90;;;;;;5072561;28;20367;-73
2022/01/14 08:20:08;;;;;;;31.30;17.27;;;-1.70;99.90;;;;;;5072561;28;20032;-71
2022/01/14 08:22:34;;;;;;;34.35;17.60;;;-1.70;99.90;;;;;;5073280;28;20033;-70
2022/01/14 08:25:00;;;;;;;36.35;19.50;;;-1.70;99.90;;;;;;5087555;28;20449;-70
2022/01/14 08:27:26;;;;;;;34.92;19.30;;;-1.60;99.90;;;;;;5092802;28;20081;-71
2022/01/14 08:29:53;;;;;;;40.42;20.17;;;-1.60;99.90;;;;;;5092125;28;20069;-72
2022/01/14 08:32:19;;;;;;;42.55;21.85;;;-1.50;99.90;;;;;;5082365;28;20032;-72
2022/01/14 08:34:45;;;;;;;36.35;20.55;;;-1.40;99.90;;;;;;5083876;28;20028;-72
2022/01/14 08:37:10;;;;;;;40.05;20.85;;;-1.40;99.90;;;;;;5091886;28;20024;-71
2022/01/14 08:39:36;;;;;;;36.60;20.35;;;-1.30;99.90;;;;;;5087393;28;20021;-71
2022/01/14 08:42:04;;;;;;;39.15;20.95;;;-1.20;99.90;;;;;;5086328;28;20373;-72
2022/01/14 08:44:30;;;;;;;39.60;19.23;;;-1.20;99.90;;;;;;5064840;28;20367;-72
2022/01/14 08:46:55;;;;;;;39.50;20.50;;;-1.20;99.90;;;;;;5071713;28;20035;-73
2022/01/14 08:49:22;;;;;;;39.38;20.50;;;-1.10;99.90;;;;;;5086444;28;20058;-72
2022/01/14 08:51:49;;;;;;;37.10;20.08;;;-1.10;99.90;;;;;;5092663;28;20066;-72
2022/01/14 08:54:16;;;;;;;36.47;19.95;;;-1.10;99.90;;;;;;5084070;28;20064;-72
2022/01/14 08:56:42;;;;;;;34.13;18.15;;;-1.00;99.90;;;;;;5072301;28;20107;-72
2022/01/14 08:59:08;;;;;;;31.52;17.50;;;-0.90;99.90;;;;;;5084885;28;20024;-73
2022/01/14 09:01:35;;;;;;;34.75;17.50;;;-0.80;99.90;;;;;;5081973;28;20024;-72
2022/01/14 09:04:02;;;;;;;32.05;18.42;;;-0.70;99.90;;;;;;5075335;28;20067;-72
2022/01/14 09:06:28;;;;;;;33.75;18.60;;;-0.60;99.90;;;;;;5092087;28;20037;-72
2022/01/14 09:08:54;;;;;;;43.90;21.40;;;-0.50;99.90;;;;;;5091822;28;20063;-72
2022/01/14 09:11:19;;;;;;;36.28;19.10;;;-0.50;99.90;;;;;;5091168;28;20067;-71
2022/01/14 09:13:45;;;;;;;34.33;19.23;;;-0.40;99.90;;;;;;5089528;28;20024;-71
2022/01/14 09:16:12;;;;;;;38.63;20.65;;;-0.30;99.90;;;;;;5076911;28;20038;-73
2022/01/14 09:18:37;;;;;;;30.20;18.15;;;-0.20;99.90;;;;;;5091903;28;20059;-73
2022/01/14 09:21:03;;;;;;;32.70;18.45;;;-0.10;99.90;;;;;;5091488;28;20020;-72
2022/01/14 09:23:29;;;;;;;31.52;17.70;;;0.00;99.90;;;;;;5090863;28;20028;-73
2022/01/14 09:25:56;;;;;;;29.52;17.48;;;0.00;99.90;;;;;;5082763;28;20035;-71
2022/01/14 09:28:22;;;;;;;29.63;17.70;;;0.10;99.90;;;;;;5075448;28;20020;-70
2022/01/14 09:30:47;;;;;;;33.67;18.35;;;0.20;99.90;;;;;;5087526;28;20508;-72
2022/01/14 09:33:17;;;;;;;33.05;18.52;;;0.20;99.90;;;;;;5081424;28;20048;-71
2022/01/14 09:35:44;;;;;;;31.35;19.60;;;0.30;99.90;;;;;;5071304;28;20036;-72
2022/01/14 09:38:09;;;;;;;32.03;18.73;;;0.30;99.90;;;;;;5088960;28;20036;-71
2022/01/14 09:40:36;;;;;;;29.13;17.38;;;0.40;99.90;;;;;;5091228;28;20028;-71
2022/01/14 09:43:02;;;;;;;29.52;18.05;;;0.50;99.90;;;;;;5075938;28;20048;-72
2022/01/14 09:45:28;;;;;;;28.27;16.27;;;0.60;99.90;;;;;;5082491;28;20021;-72
2022/01/14 09:47:55;;;;;;;33.50;18.13;;;0.70;99.90;;;;;;5070680;28;20511;-71
2022/01/14 09:50:22;;;;;;;31.40;17.83;;;0.80;99.90;;;;;;5086911;28;20036;-72
2022/01/14 09:52:51;;;;;;;39.65;19.67;;;0.90;99.90;;;;;;5090748;28;20473;-72
2022/01/14 09:55:20;;;;;;;33.55;19.25;;;1.00;99.90;;;;;;5068689;28;20119;-74
2022/01/14 09:57:47;;;;;;;35.47;20.05;;;1.10;99.90;;;;;;5073045;28;20444;-73
2022/01/14 10:00:13;;;;;;;34.28;20.25;;;1.20;99.90;;;;;;5070939;28;20032;-72
2022/01/14 10:02:41;;;;;;;35.50;19.00;;;1.30;99.90;;;;;;5080089;28;20053;-74
2022/01/14 10:05:31;;;;;;;35.25;20.70;;;1.40;99.90;;;;;;5070753;28;20064;-72
2022/01/14 10:08:28;;;;;;;36.10;19.08;;;1.50;99.90;;;;;;5071627;28;20028;-72
2022/01/14 10:10:56;;;;;;;32.33;18.80;;;1.60;99.90;;;;;;5061892;28;20103;-72
2022/01/14 10:13:29;;;;;;;36.92;21.40;;;1.60;99.90;;;;;;5070850;28;20032;-72
2022/01/14 10:16:04;;;;;;;31.85;19.17;;;1.70;99.90;;;;;;5073158;28;20381;-71
2022/01/14 10:18:30;;;;;;;35.60;20.27;;;;;;;;;;5069657;28;20091;-72
2022/01/14 10:21:01;;;;;;;33.45;19.05;;;2.20;99.90;;;;;;5072123;28;20020;-73
2022/01/14 10:23:39;;;;;;;35.65;20.30;;;;;;;;;;5075169;28;20126;-72
2022/01/14 10:26:05;;;;;;;35.83;19.95;;;2.20;99.90;;;;;;5072850;28;20020;-73
2022/01/14 10:28:30;;;;;;;35.08;20.60;;;2.30;99.90;;;;;;5069991;28;20074;-71
2022/01/14 10:30:56;;;;;;;31.58;18.83;;;2.30;99.90;;;;;;5054239;28;20090;-72
2022/01/14 10:33:28;;;;;;;37.22;19.98;;;2.40;99.90;;;;;;5071478;28;20663;-71
2022/01/14 10:35:54;;;;;;;33.42;19.70;;;2.40;99.90;;;;;;5077627;28;20034;-72
2022/01/14 10:38:23;;;;;;;33.88;19.13;;;2.50;99.90;;;;;;5056101;28;20034;-72
2022/01/14 10:40:55;;;;;;;27.98;17.20;;;2.60;99.90;;;;;;5077280;28;20060;-72
2022/01/14 10:43:29;;;;;;;27.63;16.30;;;2.70;99.90;;;;;;5075729;28;20628;-71
2022/01/14 10:45:56;;;;;;;27.13;16.92;;;2.70;99.90;;;;;;5075126;28;20465;-72
2022/01/14 10:48:31;;;;;;;27.55;16.95;;;2.70;99.90;;;;;;5074159;28;20094;-70
2022/01/14 10:51:00;;;;;;;37.03;21.05;;;2.80;99.90;;;;;;5074577;28;20040;-73
2022/01/14 10:53:41;;;;;;;32.28;19.35;;;2.90;99.90;;;;;;5055866;28;20028;-72
2022/01/14 10:56:12;;;;;;;38.05;19.83;;;3.00;99.90;;;;;;5074075;28;20032;-73
2022/01/14 10:58:42;;;;;;;38.13;20.67;;;3.00;99.90;;;;;;5072968;28;20107;-72
2022/01/14 11:01:15;;;;;;;32.67;19.42;;;3.10;99.90;;;;;;5085904;28;20028;-72
2022/01/14 11:03:45;;;;;;;33.85;19.25;;;3.20;99.90;;;;;;5076723;28;20052;-73
2022/01/14 11:06:29;;;;;;;33.00;18.98;;;3.20;99.90;;;;;;5079406;28;20024;-73
2022/01/14 11:09:03;;;;;;;33.00;19.13;;;3.30;99.90;;;;;;5080270;28;20493;-73
2022/01/14 11:11:31;;;;;;;34.85;18.67;;;3.40;99.90;;;;;;5077724;28;20032;-73
2022/01/14 11:13:57;;;;;;;30.45;17.85;;;3.40;99.90;;;;;;5083602;28;20155;-72
2022/01/14 11:16:22;;;;;;;31.13;17.63;;;3.40;99.90;;;;;;5077554;28;20160;-73
2022/01/14 11:18:49;;;;;;;33.25;18.60;;;3.50;99.90;;;;;;5081104;28;20036;-73
2022/01/14 11:24:03;;;;;;;33.63;18.77;;;3.60;99.90;;;;;;5077016;28;20081;-73
2022/01/14 11:26:33;;;;;;;30.65;18.38;;;3.70;99.90;;;;;;5080033;28;20535;-73
2022/01/14 11:29:12;;;;;;;30.30;18.02;;;3.80;99.90;;;;;;5079600;28;20069;-74
2022/01/14 11:31:39;;;;;;;30.83;18.08;;;3.80;99.90;;;;;;5089779;28;20417;-74
2022/01/14 11:34:09;;;;;;;29.30;18.45;;;3.80;99.90;;;;;;5074645;28;20066;-74
2022/01/14 11:36:56;;;;;;;34.05;19.23;;;3.90;99.90;;;;;;5094155;28;20111;-74
2022/01/14 11:39:24;;;;;;;35.45;19.98;;;3.90;99.90;;;;;;5092674;28;20111;-74
2022/01/14 11:42:19;;;;;;;31.67;18.30;;;4.00;99.90;;;;;;5093882;28;20034;-73
2022/01/14 11:47:41;;;;;;;34.28;18.80;;;4.20;99.90;;;;;;5091450;28;20430;-73
2022/01/14 11:50:19;;;;;;;28.63;17.15;;;4.30;99.90;;;;;;5054344;28;20380;-75
2022/01/14 11:52:45;;;;;;;29.15;17.83;;;4.40;99.90;;;;;;5092848;28;20164;-73
2022/01/14 11:55:23;;;;;;;28.08;17.13;;;4.40;99.90;;;;;;5071660;28;20374;-74
2022/01/14 11:58:04;;;;;;;27.65;17.63;;;4.40;99.90;;;;;;5092582;28;20590;-74
2022/01/14 12:00:33;;;;;;;25.80;16.60;;;4.40;99.90;;;;;;5073615;28;20114;-74
2022/01/14 12:03:11;;;;;;;26.70;16.65;;;4.50;99.90;;;;;;5072375;28;20335;-74
2022/01/14 12:05:59;;;;;;;27.38;17.23;;;4.40;99.90;;;;;;5090664;28;20516;-74
2022/01/14 12:08:24;;;;;;;31.92;17.48;;;4.50;99.90;;;;;;5090979;28;20280;-74
2022/01/14 12:10:54;;;;;;;29.23;17.65;;;4.60;99.90;;;;;;5092087;28;20531;-74
2022/01/14 12:13:36;;;;;;;28.57;16.53;;;4.60;99.90;;;;;;5091178;28;20039;-74
2022/01/14 12:16:07;;;;;;;29.45;17.17;;;4.70;99.90;;;;;;5072389;28;20119;-74
2022/01/14 12:18:50;;;;;;;;;;;4.80;99.90;;;;;;5072606;28;20472;-73
2022/01/14 12:21:16;;;;;;;28.38;16.10;;;4.90;99.90;;;;;;5053483;28;19915;-74
2022/01/14 12:23:43;;;;;;;31.70;16.67;;;5.00;99.90;;;;;;5082222;28;20033;-73
2022/01/14 12:26:18;;;;;;;28.42;17.58;;;5.00;99.90;;;;;;5070566;28;20390;-74
2022/01/14 12:28:45;;;;;;;26.45;16.85;;;5.00;99.90;;;;;;5071857;28;20178;-75
2022/01/14 12:31:11;;;;;;;28.70;16.55;;;5.00;99.90;;;;;;5052746;28;20032;-74
2022/01/14 12:33:51;;;;;;;28.38;16.67;;;5.10;99.90;;;;;;5075830;28;20024;-72
2022/01/14 12:36:22;;;;;;;26.58;16.58;;;5.20;99.90;;;;;;5091333;28;20036;-73
2022/01/14 12:38:48;;;;;;;30.48;16.23;;;5.30;99.90;;;;;;5087270;28;20054;-72
2022/01/14 12:41:24;;;;;;;28.55;16.15;;;5.30;99.90;;;;;;5090839;28;20028;-72
2022/01/14 12:43:55;;;;;;;26.58;16.92;;;5.30;99.90;;;;;;5085433;28;20032;-73
2022/01/14 12:46:35;;;;;;;28.67;16.70;;;5.40;99.90;;;;;;5070679;28;20039;-73
2022/01/14 12:49:26;;;;;;;26.67;16.55;;;5.50;99.90;;;;;;5077376;28;20166;-73
2022/01/14 12:52:04;;;;;;;23.75;15.48;;;5.50;99.90;;;;;;5091560;28;20040;-74
2022/01/14 12:54:36;;;;;;;28.65;17.05;;;5.50;99.90;;;;;;5078880;28;20036;-72
2022/01/14 12:57:03;;;;;;;37.08;17.83;;;5.60;99.90;;;;;;5071281;28;20036;-73
2022/01/14 12:59:38;;;;;;;28.88;17.40;;;5.80;99.90;;;;;;5070636;28;20202;-73
2022/01/14 13:02:05;;;;;;;27.65;17.48;;;5.80;99.90;;;;;;5071538;28;20029;-73
2022/01/14 13:04:31;;;;;;;26.98;17.52;;;5.80;99.90;;;;;;5070953;28;20115;-73